sensor_id;sensor_type;location;lat;lon;timestamp;pressure;altitude;pressure_sealevel;temperature;humidity
41690;BME280;27372;42.658;23.256;2023-05-16T00:02:24;93516.88;;;12.86;100.00
41690;BME280;27372;42.658;23.256;2023-05-16T00:04:52;93505.50;;;12.76;100.00
41690;BME280;27372;42.658;23.256;2023-05-16T00:07:18;93511.28;;;12.78;100.00
41690;BME280;27372;42.658;23.256;2023-05-16T00:09:44;93500.75;;;12.78;100.00
41690;BME280;27372;42.658;23.256;2023-05-16T00:12:09;93504.13;;;12.73;100.00
41690;BME280;27372;42.658;23.256;2023-05-16T00:14:35;93493.38;;;12.74;100.00
41690;BME280;27372;42.658;23.256;2023-05-16T00:17:03;93502.91;;;12.86;100.00
41690;BME280;27372;42.658;23.256;2023-05-16T00:19:35;93507.53;;;12.68;100.00
41690;BME280;27372;42.658;23.256;2023-05-16T00:22:01;93500.13;;;12.60;100.00
41690;BME280;27372;42.658;23.256;2023-05-16T00:24:27;93495.28;;;12.41;100.00
41690;BME280;27372;42.658;23.256;2023-05-16T00:26:52;93493.75;;;12.51;100.00
41690;BME280;27372;42.658;23.256;2023-05-16T00:29:18;93482.38;;;12.40;100.00
41690;BME280;27372;42.658;23.256;2023-05-16T00:31:46;93493.53;;;12.57;100.00
41690;BME280;27372;42.658;23.256;2023-05-16T00:34:14;93476.66;;;12.53;100.00
41690;BME280;27372;42.658;23.256;2023-05-16T00:36:40;93483.81;;;12.63;100.00
41690;BME280;27372;42.658;23.256;2023-05-16T00:39:05;93481.44;;;12.62;100.00
41690;BME280;27372;42.658;23.256;2023-05-16T00:41:32;93474.34;;;12.67;100.00
41690;BME280;27372;42.658;23.256;2023-05-16T00:43:58;93474.59;;;12.66;100.00
41690;BME280;27372;42.658;23.256;2023-05-16T00:46:23;93462.78;;;12.73;100.00
41690;BME280;27372;42.658;23.256;2023-05-16T00:48:48;93458.81;;;12.66;100.00
41690;BME280;27372;42.658;23.256;2023-05-16T00:51:15;93454.56;;;12.65;100.00
41690;BME280;27372;42.658;23.256;2023-05-16T00:53:41;93466.84;;;12.92;100.00
41690;BME280;27372;42.658;23.256;2023-05-16T00:56:06;93460.53;;;12.98;100.00
41690;BME280;27372;42.658;23.256;2023-05-16T00:58:32;93458.69;;;13.03;100.00
41690;BME280;27372;42.658;23.256;2023-05-16T01:01:00;93465.31;;;13.16;100.00
41690;BME280;27372;42.658;23.256;2023-05-16T01:03:30;93453.19;;;13.15;100.00
41690;BME280;27372;42.658;23.256;2023-05-16T01:05:57;93453.44;;;13.19;100.00
41690;BME280;27372;42.658;23.256;2023-05-16T01:08:22;93461.13;;;13.20;100.00
41690;BME280;27372;42.658;23.256;2023-05-16T01:11:24;93465.00;;;13.08;100.00
41690;BME280;27372;42.658;23.256;2023-05-16T01:17:01;93461.47;;;12.76;100.00
41690;BME280;27372;42.658;23.256;2023-05-16T01:21:59;93457.84;;;12.87;100.00
41690;BME280;27372;42.658;23.256;2023-05-16T01:24:36;93444.09;;;12.75;100.00
41690;BME280;27372;42.658;23.256;2023-05-16T01:27:09;93434.63;;;12.84;100.00
41690;BME280;27372;42.658;23.256;2023-05-16T01:29:38;93435.25;;;13.02;100.00
41690;BME280;27372;42.658;23.256;2023-05-16T01:32:07;93443.69;;;13.14;100.00
41690;BME280;27372;42.658;23.256;2023-05-16T01:34:35;93439.75;;;13.22;100.00
41690;BME280;27372;42.658;23.256;2023-05-16T01:37:18;93435.00;;;13.29;100.00
41690;BME280;27372;42.658;23.256;2023-05-16T01:40:15;93429.44;;;13.05;100.00
41690;BME280;27372;42.658;23.256;2023-05-16T01:42:46;93418.84;;;12.95;100.00
41690;BME280;27372;42.658;23.256;2023-05-16T01:45:19;93418.84;;;12.89;100.00
41690;BME280;27372;42.658;23.256;2023-05-16T01:47:59;93415.97;;;12.33;100.00
41690;BME280;27372;42.658;23.256;2023-05-16T01:50:31;93414.53;;;12.63;100.00
41690;BME280;27372;42.658;23.256;2023-05-16T01:53:00;93414.09;;;12.81;100.00
41690;BME280;27372;42.658;23.256;2023-05-16T01:55:44;93418.31;;;12.93;100.00
41690;BME280;27372;42.658;23.256;2023-05-16T01:58:11;93401.22;;;13.00;100.00
41690;BME280;27372;42.658;23.256;2023-05-16T02:00:40;93407.53;;;12.99;100.00
41690;BME280;27372;42.658;23.256;2023-05-16T02:03:06;93412.59;;;13.11;100.00
41690;BME280;27372;42.658;23.256;2023-05-16T02:05:32;93419.69;;;13.11;100.00
41690;BME280;27372;42.658;23.256;2023-05-16T02:08:01;93415.19;;;13.01;100.00
41690;BME280;27372;42.658;23.256;2023-05-16T02:10:29;93422.31;;;13.05;100.00
41690;BME280;27372;42.658;23.256;2023-05-16T02:12:55;93404.47;;;12.54;100.00
41690;BME280;27372;42.658;23.256;2023-05-16T02:15:21;93400.31;;;12.64;100.00
41690;BME280;27372;42.658;23.256;2023-05-16T02:17:46;93413.28;;;12.81;100.00
41690;BME280;27372;42.658;23.256;2023-05-16T02:20:13;93391.63;;;12.63;100.00
41690;BME280;27372;42.658;23.256;2023-05-16T02:22:39;93415.56;;;12.62;100.00
41690;BME280;27372;42.658;23.256;2023-05-16T02:25:05;93402.34;;;12.46;100.00
41690;BME280;27372;42.658;23.256;2023-05-16T02:27:36;93408.28;;;12.84;100.00
41690;BME280;27372;42.658;23.256;2023-05-16T02:30:14;93394.88;;;12.91;100.00
41690;BME280;27372;42.658;23.256;2023-05-16T02:32:40;93406.69;;;12.83;100.00
41690;BME280;27372;42.658;23.256;2023-05-16T02:35:09;93412.19;;;12.71;100.00
41690;BME280;27372;42.658;23.256;2023-05-16T02:37:39;93414.25;;;12.11;100.00
41690;BME280;27372;42.658;23.256;2023-05-16T02:40:41;93401.63;;;12.56;100.00
41690;BME280;27372;42.658;23.256;2023-05-16T02:43:07;93408.16;;;12.53;100.00
41690;BME280;27372;42.658;23.256;2023-05-16T02:45:35;93399.25;;;12.65;100.00
41690;BME280;27372;42.658;23.256;2023-05-16T02:48:01;93399.88;;;12.87;100.00
41690;BME280;27372;42.658;23.256;2023-05-16T02:50:26;93409.94;;;13.01;100.00
41690;BME280;27372;42.658;23.256;2023-05-16T02:52:52;93391.75;;;13.15;100.00
41690;BME280;27372;42.658;23.256;2023-05-16T02:55:37;93392.03;;;13.18;100.00
41690;BME280;27372;42.658;23.256;2023-05-16T02:58:03;93398.88;;;13.25;100.00
41690;BME280;27372;42.658;23.256;2023-05-16T03:00:38;93398.88;;;13.25;100.00
41690;BME280;27372;42.658;23.256;2023-05-16T03:03:06;93395.47;;;13.34;100.00
41690;BME280;27372;42.658;23.256;2023-05-16T03:05:31;93391.25;;;13.28;100.00
41690;BME280;27372;42.658;23.256;2023-05-16T03:07:57;93393.66;;;13.45;100.00
41690;BME280;27372;42.658;23.256;2023-05-16T03:10:26;93397.38;;;13.49;100.00
41690;BME280;27372;42.658;23.256;2023-05-16T03:12:51;93384.41;;;13.32;100.00
41690;BME280;27372;42.658;23.256;2023-05-16T03:15:20;93395.50;;;13.50;100.00
41690;BME280;27372;42.658;23.256;2023-05-16T03:17:46;93399.34;;;12.96;100.00
41690;BME280;27372;42.658;23.256;2023-05-16T03:20:11;93406.19;;;12.86;100.00
41690;BME280;27372;42.658;23.256;2023-05-16T03:22:36;93398.75;;;12.68;100.00
41690;BME280;27372;42.658;23.256;2023-05-16T03:25:02;93394.25;;;12.63;100.00
41690;BME280;27372;42.658;23.256;2023-05-16T03:27:28;93396.13;;;12.73;100.00
41690;BME280;27372;42.658;23.256;2023-05-16T03:30:00;93395.69;;;13.02;100.00
41690;BME280;27372;42.658;23.256;2023-05-16T03:32:28;93383.59;;;13.11;100.00
41690;BME280;27372;42.658;23.256;2023-05-16T03:34:53;93375.63;;;12.91;100.00
41690;BME280;27372;42.658;23.256;2023-05-16T03:37:22;93383.53;;;12.96;100.00
41690;BME280;27372;42.658;23.256;2023-05-16T03:39:47;93399.34;;;12.91;100.00
41690;BME280;27372;42.658;23.256;2023-05-16T03:42:12;93386.19;;;12.96;100.00
41690;BME280;27372;42.658;23.256;2023-05-16T03:44:38;93383.81;;;12.99;100.00
41690;BME280;27372;42.658;23.256;2023-05-16T03:47:03;93394.06;;;12.85;100.00
41690;BME280;27372;42.658;23.256;2023-05-16T03:49:29;93380.34;;;12.78;100.00
41690;BME280;27372;42.658;23.256;2023-05-16T03:51:57;93385.16;;;13.07;100.00
41690;BME280;27372;42.658;23.256;2023-05-16T03:54:23;93392.28;;;13.12;100.00
41690;BME280;27372;42.658;23.256;2023-05-16T03:56:48;93389.91;;;13.15;100.00
41690;BME280;27372;42.658;23.256;2023-05-16T03:59:16;93393.09;;;13.38;100.00
41690;BME280;27372;42.658;23.256;2023-05-16T04:01:42;93394.44;;;13.41;100.00
41690;BME280;27372;42.658;23.256;2023-05-16T04:04:10;93400.00;;;13.55;100.00
41690;BME280;27372;42.658;23.256;2023-05-16T04:06:35;93395.75;;;13.38;100.00
41690;BME280;27372;42.658;23.256;2023-05-16T04:09:00;93394.72;;;13.39;100.00
41690;BME280;27372;42.658;23.256;2023-05-16T04:11:26;93396.84;;;13.47;100.00
41690;BME280;27372;42.658;23.256;2023-05-16T04:13:51;93393.66;;;13.56;100.00
41690;BME280;27372;42.658;23.256;2023-05-16T04:16:18;93400.53;;;13.72;100.00
41690;BME280;27372;42.658;23.256;2023-05-16T04:18:46;93388.38;;;13.56;100.00
41690;BME280;27372;42.658;23.256;2023-05-16T04:21:12;93381.03;;;13.63;100.00
41690;BME280;27372;42.658;23.256;2023-05-16T04:23:40;93384.44;;;13.74;100.00
41690;BME280;27372;42.658;23.256;2023-05-16T04:26:08;93385.50;;;13.78;100.00
41690;BME280;27372;42.658;23.256;2023-05-16T04:28:37;93392.34;;;13.94;100.00
41690;BME280;27372;42.658;23.256;2023-05-16T04:31:02;93386.25;;;13.94;100.00
41690;BME280;27372;42.658;23.256;2023-05-16T04:33:27;93373.63;;;13.80;100.00
41690;BME280;27372;42.658;23.256;2023-05-16T04:35:56;93377.56;;;13.93;100.00
41690;BME280;27372;42.658;23.256;2023-05-16T04:38:55;93380.22;;;13.78;100.00
41690;BME280;27372;42.658;23.256;2023-05-16T04:41:24;93369.13;;;13.86;100.00
41690;BME280;27372;42.658;23.256;2023-05-16T04:43:53;93373.59;;;13.86;100.00
41690;BME280;27372;42.658;23.256;2023-05-16T04:46:21;93372.25;;;14.04;100.00
41690;BME280;27372;42.658;23.256;2023-05-16T04:48:46;93372.25;;;14.19;100.00
41690;BME280;27372;42.658;23.256;2023-05-16T04:51:26;93385.38;;;14.35;100.00
41690;BME280;27372;42.658;23.256;2023-05-16T04:53:56;93388.28;;;14.38;99.93
41690;BME280;27372;42.658;23.256;2023-05-16T04:56:22;93375.59;;;14.35;99.08
41690;BME280;27372;42.658;23.256;2023-05-16T04:58:50;93380.34;;;14.38;99.54
41690;BME280;27372;42.658;23.256;2023-05-16T05:01:25;93380.88;;;14.40;98.30
41690;BME280;27372;42.658;23.256;2023-05-16T05:03:50;93366.38;;;14.33;99.32
41690;BME280;27372;42.658;23.256;2023-05-16T05:06:15;93384.34;;;14.36;98.76
41690;BME280;27372;42.658;23.256;2023-05-16T05:08:41;93389.44;;;13.44;100.00
41690;BME280;27372;42.658;23.256;2023-05-16T05:11:06;93389.41;;;14.06;100.00
41690;BME280;27372;42.658;23.256;2023-05-16T05:13:32;93385.44;;;14.19;100.00
41690;BME280;27372;42.658;23.256;2023-05-16T05:16:03;93385.19;;;14.10;100.00
41690;BME280;27372;42.658;23.256;2023-05-16T05:18:33;93379.88;;;14.21;100.00
41690;BME280;27372;42.658;23.256;2023-05-16T05:21:39;93379.41;;;13.67;100.00
41690;BME280;27372;42.658;23.256;2023-05-16T05:24:06;93383.91;;;13.72;100.00
41690;BME280;27372;42.658;23.256;2023-05-16T05:26:34;93380.97;;;14.04;100.00
41690;BME280;27372;42.658;23.256;2023-05-16T05:29:00;93375.41;;;14.16;100.00
41690;BME280;27372;42.658;23.256;2023-05-16T05:31:25;93368.25;;;14.17;100.00
41690;BME280;27372;42.658;23.256;2023-05-16T05:33:51;93369.06;;;14.12;100.00
41690;BME280;27372;42.658;23.256;2023-05-16T05:36:16;93362.44;;;14.20;100.00
41690;BME280;27372;42.658;23.256;2023-05-16T05:38:41;93354.00;;;14.18;100.00
41690;BME280;27372;42.658;23.256;2023-05-16T05:41:09;93343.63;;;14.42;100.00
41690;BME280;27372;42.658;23.256;2023-05-16T05:43:48;93341.22;;;14.45;100.00
41690;BME280;27372;42.658;23.256;2023-05-16T05:46:13;93350.47;;;14.48;99.93
41690;BME280;27372;42.658;23.256;2023-05-16T05:48:39;93346.47;;;14.61;99.17
41690;BME280;27372;42.658;23.256;2023-05-16T05:51:12;93339.63;;;14.55;99.94
41690;BME280;27372;42.658;23.256;2023-05-16T05:53:47;93338.00;;;14.59;99.51
41690;BME280;27372;42.658;23.256;2023-05-16T05:56:15;93341.69;;;14.68;98.66
41690;BME280;27372;42.658;23.256;2023-05-16T05:58:43;93363.91;;;14.62;99.71
41690;BME280;27372;42.658;23.256;2023-05-16T06:01:15;93348.41;;;14.29;100.00
41690;BME280;27372;42.658;23.256;2023-05-16T06:03:46;93352.50;;;13.44;100.00
41690;BME280;27372;42.658;23.256;2023-05-16T06:06:12;93352.25;;;13.41;100.00
41690;BME280;27372;42.658;23.256;2023-05-16T06:08:39;93357.00;;;13.44;100.00
41690;BME280;27372;42.658;23.256;2023-05-16T06:11:05;93348.81;;;13.30;100.00
41690;BME280;27372;42.658;23.256;2023-05-16T06:13:30;93357.28;;;13.47;100.00
41690;BME280;27372;42.658;23.256;2023-05-16T06:17:03;93352.00;;;13.68;100.00
41690;BME280;27372;42.658;23.256;2023-05-16T06:19:29;93345.63;;;13.74;100.00
41690;BME280;27372;42.658;23.256;2023-05-16T06:21:57;93355.63;;;14.03;100.00
41690;BME280;27372;42.658;23.256;2023-05-16T06:24:22;93354.31;;;13.95;100.00
41690;BME280;27372;42.658;23.256;2023-05-16T06:26:50;93344.03;;;13.89;100.00
41690;BME280;27372;42.658;23.256;2023-05-16T06:29:16;93345.53;;;14.26;100.00
41690;BME280;27372;42.658;23.256;2023-05-16T06:31:47;93345.50;;;14.36;100.00
41690;BME280;27372;42.658;23.256;2023-05-16T06:34:20;93337.03;;;14.39;99.27
41690;BME280;27372;42.658;23.256;2023-05-16T06:36:51;93337.03;;;14.39;100.00
41690;BME280;27372;42.658;23.256;2023-05-16T06:39:17;93337.22;;;14.58;99.01
41690;BME280;27372;42.658;23.256;2023-05-16T06:41:42;93317.50;;;14.40;99.58
41690;BME280;27372;42.658;23.256;2023-05-16T06:44:07;93321.34;;;14.69;98.38
41690;BME280;27372;42.658;23.256;2023-05-16T06:46:33;93318.63;;;14.84;98.21
41690;BME280;27372;42.658;23.256;2023-05-16T06:49:01;93311.13;;;14.97;97.46
41690;BME280;27372;42.658;23.256;2023-05-16T06:51:30;93311.72;;;14.88;97.05
41690;BME280;27372;42.658;23.256;2023-05-16T06:53:56;93310.72;;;14.79;96.54
41690;BME280;27372;42.658;23.256;2023-05-16T06:56:21;93301.50;;;14.71;97.12
41690;BME280;27372;42.658;23.256;2023-05-16T06:58:48;93284.31;;;14.74;95.37
41690;BME280;27372;42.658;23.256;2023-05-16T07:01:13;93283.00;;;14.71;94.74
41690;BME280;27372;42.658;23.256;2023-05-16T07:03:39;93293.59;;;14.71;93.33
41690;BME280;27372;42.658;23.256;2023-05-16T07:06:04;93311.78;;;14.78;96.90
41690;BME280;27372;42.658;23.256;2023-05-16T07:08:30;93293.59;;;14.71;98.97
41690;BME280;27372;42.658;23.256;2023-05-16T07:10:55;93294.59;;;14.81;99.33
41690;BME280;27372;42.658;23.256;2023-05-16T07:13:20;93289.06;;;14.77;96.30
41690;BME280;27372;42.658;23.256;2023-05-16T07:15:49;93290.78;;;14.47;97.82
41690;BME280;27372;42.658;23.256;2023-05-16T07:18:14;93294.75;;;15.00;95.07
41690;BME280;27372;42.658;23.256;2023-05-16T07:20:40;93284.28;;;15.19;94.50
41690;BME280;27372;42.658;23.256;2023-05-16T07:23:05;93280.25;;;14.87;96.36
41690;BME280;27372;42.658;23.256;2023-05-16T07:25:34;93281.97;;;14.67;98.16
41690;BME280;27372;42.658;23.256;2023-05-16T07:27:59;93309.38;;;14.82;97.40
41690;BME280;27372;42.658;23.256;2023-05-16T07:30:27;93309.50;;;14.51;97.66
41690;BME280;27372;42.658;23.256;2023-05-16T07:32:53;93298.91;;;14.61;96.11
41690;BME280;27372;42.658;23.256;2023-05-16T07:35:19;93313.56;;;14.88;93.17
41690;BME280;27372;42.658;23.256;2023-05-16T07:37:51;93311.97;;;14.92;94.11
41690;BME280;27372;42.658;23.256;2023-05-16T07:40:16;93326.81;;;15.22;88.65
41690;BME280;27372;42.658;23.256;2023-05-16T07:42:52;93321.06;;;15.50;87.80
41690;BME280;27372;42.658;23.256;2023-05-16T07:45:21;93320.78;;;15.81;87.19
41690;BME280;27372;42.658;23.256;2023-05-16T07:47:46;93325.69;;;15.98;87.67
41690;BME280;27372;42.658;23.256;2023-05-16T07:50:14;93316.50;;;15.90;87.97
41690;BME280;27372;42.658;23.256;2023-05-16T07:52:40;93311.03;;;16.30;87.93
41690;BME280;27372;42.658;23.256;2023-05-16T07:55:09;93314.25;;;16.27;84.24
41690;BME280;27372;42.658;23.256;2023-05-16T07:57:37;93320.56;;;16.31;83.60
41690;BME280;27372;42.658;23.256;2023-05-16T08:00:06;93306.06;;;16.48;82.92
41690;BME280;27372;42.658;23.256;2023-05-16T08:02:32;93296.47;;;16.71;82.14
41690;BME280;27372;42.658;23.256;2023-05-16T08:05:00;93285.97;;;17.04;81.76
41690;BME280;27372;42.658;23.256;2023-05-16T08:07:25;93290.41;;;17.08;82.55
41690;BME280;27372;42.658;23.256;2023-05-16T08:09:55;93278.66;;;17.48;79.64
41690;BME280;27372;42.658;23.256;2023-05-16T08:12:20;93285.53;;;17.49;80.60
41690;BME280;27372;42.658;23.256;2023-05-16T08:14:46;93266.31;;;17.71;78.53
41690;BME280;27372;42.658;23.256;2023-05-16T08:17:11;93253.34;;;17.83;77.80
41690;BME280;27372;42.658;23.256;2023-05-16T08:19:39;93246.91;;;18.18;77.08
41690;BME280;27372;42.658;23.256;2023-05-16T08:22:06;93246.41;;;18.15;75.10
41690;BME280;27372;42.658;23.256;2023-05-16T08:24:32;93245.53;;;18.06;74.64
41690;BME280;27372;42.658;23.256;2023-05-16T08:27:00;93250.13;;;17.87;74.44
41690;BME280;27372;42.658;23.256;2023-05-16T08:29:25;93260.38;;;18.21;75.48
41690;BME280;27372;42.658;23.256;2023-05-16T08:31:51;93256.44;;;18.19;74.42
41690;BME280;27372;42.658;23.256;2023-05-16T08:34:16;93248.97;;;18.21;74.62
41690;BME280;27372;42.658;23.256;2023-05-16T08:36:42;93252.97;;;18.32;74.40
41690;BME280;27372;42.658;23.256;2023-05-16T08:39:07;93249.56;;;18.04;74.98
41690;BME280;27372;42.658;23.256;2023-05-16T08:41:35;93255.63;;;18.32;74.72
41690;BME280;27372;42.658;23.256;2023-05-16T08:44:07;93260.13;;;18.59;73.00
41690;BME280;27372;42.658;23.256;2023-05-16T08:46:34;93273.09;;;18.75;72.73
41690;BME280;27372;42.658;23.256;2023-05-16T08:49:01;93275.28;;;19.09;72.49
41690;BME280;27372;42.658;23.256;2023-05-16T08:51:39;93282.44;;;18.72;71.81
41690;BME280;27372;42.658;23.256;2023-05-16T08:54:11;93284.63;;;19.21;73.68
41690;BME280;27372;42.658;23.256;2023-05-16T08:56:37;93291.03;;;18.69;76.56
41690;BME280;27372;42.658;23.256;2023-05-16T08:59:09;93285.41;;;19.21;73.45
41690;BME280;27372;42.658;23.256;2023-05-16T09:01:36;93280.97;;;19.17;67.99
41690;BME280;27372;42.658;23.256;2023-05-16T09:04:10;93286.31;;;19.39;66.24
41690;BME280;27372;42.658;23.256;2023-05-16T09:06:39;93283.75;;;19.57;67.89
41690;BME280;27372;42.658;23.256;2023-05-16T09:09:08;93284.38;;;19.31;66.49
41690;BME280;27372;42.658;23.256;2023-05-16T09:11:37;93273.38;;;19.01;66.36
41690;BME280;27372;42.658;23.256;2023-05-16T09:14:03;93272.88;;;19.45;65.08
41690;BME280;27372;42.658;23.256;2023-05-16T09:16:31;93282.75;;;19.76;67.12
41690;BME280;27372;42.658;23.256;2023-05-16T09:18:59;93284.47;;;19.71;67.84
41690;BME280;27372;42.658;23.256;2023-05-16T09:21:33;93270.34;;;19.71;67.37
41690;BME280;27372;42.658;23.256;2023-05-16T09:26:32;93282.50;;;19.32;67.07
41690;BME280;27372;42.658;23.256;2023-05-16T09:28:58;93279.66;;;19.51;69.13
41690;BME280;27372;42.658;23.256;2023-05-16T09:31:25;93281.09;;;19.57;70.36
41690;BME280;27372;42.658;23.256;2023-05-16T09:33:57;93265.47;;;19.64;69.61
41690;BME280;27372;42.658;23.256;2023-05-16T09:36:26;93262.59;;;19.83;69.41
41690;BME280;27372;42.658;23.256;2023-05-16T09:38:51;93267.28;;;20.09;69.52
41690;BME280;27372;42.658;23.256;2023-05-16T09:41:17;93272.31;;;20.20;68.04
41690;BME280;27372;42.658;23.256;2023-05-16T09:43:43;93257.44;;;20.19;68.79
41690;BME280;27372;42.658;23.256;2023-05-16T09:46:13;93259.31;;;20.18;68.65
41690;BME280;27372;42.658;23.256;2023-05-16T09:48:45;93256.97;;;20.25;68.22
41690;BME280;27372;42.658;23.256;2023-05-16T09:51:22;93263.28;;;19.89;68.87
41690;BME280;27372;42.658;23.256;2023-05-16T09:53:51;93273.59;;;20.31;68.82
41690;BME280;27372;42.658;23.256;2023-05-16T09:56:19;93264.09;;;20.56;68.81
41690;BME280;27372;42.658;23.256;2023-05-16T09:58:53;93261.91;;;20.58;67.53
41690;BME280;27372;42.658;23.256;2023-05-16T10:01:19;93263.44;;;19.61;69.32
41690;BME280;27372;42.658;23.256;2023-05-16T10:03:44;93267.13;;;20.14;65.14
41690;BME280;27372;42.658;23.256;2023-05-16T10:06:10;93276.19;;;19.50;67.24
41690;BME280;27372;42.658;23.256;2023-05-16T10:08:41;93271.47;;;20.01;65.52
41690;BME280;27372;42.658;23.256;2023-05-16T10:11:10;93263.25;;;20.29;65.38
41690;BME280;27372;42.658;23.256;2023-05-16T10:13:39;93269.69;;;20.28;65.90
41690;BME280;27372;42.658;23.256;2023-05-16T10:16:10;93269.28;;;20.53;65.07
41690;BME280;27372;42.658;23.256;2023-05-16T10:18:37;93286.44;;;20.20;66.13
41690;BME280;27372;42.658;23.256;2023-05-16T10:21:06;93285.28;;;20.04;66.69
41690;BME280;27372;42.658;23.256;2023-05-16T10:23:33;93276.09;;;20.19;67.85
41690;BME280;27372;42.658;23.256;2023-05-16T10:26:06;93270.47;;;20.29;65.91
41690;BME280;27372;42.658;23.256;2023-05-16T10:28:35;93271.31;;;19.75;67.93
41690;BME280;27372;42.658;23.256;2023-05-16T10:31:01;93255.91;;;18.95;69.21
41690;BME280;27372;42.658;23.256;2023-05-16T10:33:30;93258.06;;;19.07;71.05
41690;BME280;27372;42.658;23.256;2023-05-16T10:35:55;93256.13;;;19.44;71.17
41690;BME280;27372;42.658;23.256;2023-05-16T10:38:22;93257.09;;;19.80;69.37
41690;BME280;27372;42.658;23.256;2023-05-16T10:40:49;93237.63;;;19.79;68.40
41690;BME280;27372;42.658;23.256;2023-05-16T10:43:30;93235.22;;;19.92;69.69
41690;BME280;27372;42.658;23.256;2023-05-16T10:46:01;93225.53;;;20.05;67.73
41690;BME280;27372;42.658;23.256;2023-05-16T10:48:35;93228.59;;;20.29;67.30
41690;BME280;27372;42.658;23.256;2023-05-16T10:53:46;93234.19;;;20.10;66.93
41690;BME280;27372;42.658;23.256;2023-05-16T10:56:12;93237.09;;;20.49;66.96
41690;BME280;27372;42.658;23.256;2023-05-16T11:01:28;93260.09;;;20.27;66.80
41690;BME280;27372;42.658;23.256;2023-05-16T11:04:07;93254.50;;;20.38;67.10
41690;BME280;27372;42.658;23.256;2023-05-16T11:06:52;93253.25;;;19.95;68.39
41690;BME280;27372;42.658;23.256;2023-05-16T11:09:23;93256.94;;;19.53;71.01
41690;BME280;27372;42.658;23.256;2023-05-16T11:14:24;93276.81;;;20.01;69.62
41690;BME280;27372;42.658;23.256;2023-05-16T11:17:20;93293.06;;;20.31;68.95
41690;BME280;27372;42.658;23.256;2023-05-16T11:19:48;93289.78;;;20.35;70.35
41690;BME280;27372;42.658;23.256;2023-05-16T11:25:01;93293.13;;;20.67;67.83
41690;BME280;27372;42.658;23.256;2023-05-16T11:27:32;93275.09;;;20.72;69.54
41690;BME280;27372;42.658;23.256;2023-05-16T11:32:37;93267.00;;;21.04;68.43
41690;BME280;27372;42.658;23.256;2023-05-16T11:35:07;93269.84;;;20.90;68.03
41690;BME280;27372;42.658;23.256;2023-05-16T11:37:34;93259.63;;;20.83;67.93
41690;BME280;27372;42.658;23.256;2023-05-16T11:40:07;93257.25;;;20.82;65.43
41690;BME280;27372;42.658;23.256;2023-05-16T11:45:07;93267.63;;;20.92;66.01
41690;BME280;27372;42.658;23.256;2023-05-16T11:47:35;93273.91;;;20.87;66.38
41690;BME280;27372;42.658;23.256;2023-05-16T11:50:17;93273.59;;;20.98;67.04
41690;BME280;27372;42.658;23.256;2023-05-16T11:52:46;93278.47;;;21.04;65.88
41690;BME280;27372;42.658;23.256;2023-05-16T11:55:12;93278.03;;;20.44;69.61
41690;BME280;27372;42.658;23.256;2023-05-16T11:57:39;93276.31;;;20.40;67.92
41690;BME280;27372;42.658;23.256;2023-05-16T12:00:20;93260.69;;;21.52;64.53
41690;BME280;27372;42.658;23.256;2023-05-16T12:02:48;93240.75;;;22.06;62.83
41690;BME280;27372;42.658;23.256;2023-05-16T12:05:18;93233.13;;;21.78;61.80
41690;BME280;27372;42.658;23.256;2023-05-16T12:07:46;93218.03;;;21.82;62.26
41690;BME280;27372;42.658;23.256;2023-05-16T12:10:13;93226.13;;;22.33;62.74
41690;BME280;27372;42.658;23.256;2023-05-16T12:12:43;93228.16;;;22.45;61.76
41690;BME280;27372;42.658;23.256;2023-05-16T12:15:10;93234.19;;;22.85;60.30
41690;BME280;27372;42.658;23.256;2023-05-16T12:17:36;93231.97;;;22.87;59.32
41690;BME280;27372;42.658;23.256;2023-05-16T12:20:04;93236.94;;;22.97;59.94
41690;BME280;27372;42.658;23.256;2023-05-16T12:22:38;93224.34;;;22.76;60.32
41690;BME280;27372;42.658;23.256;2023-05-16T12:25:24;93221.44;;;22.60;61.91
41690;BME280;27372;42.658;23.256;2023-05-16T12:27:54;93217.00;;;22.34;61.71
41690;BME280;27372;42.658;23.256;2023-05-16T12:30:25;93217.59;;;22.49;61.19
41690;BME280;27372;42.658;23.256;2023-05-16T12:33:07;93225.97;;;22.00;63.29
41690;BME280;27372;42.658;23.256;2023-05-16T12:35:41;93215.03;;;21.84;64.31
41690;BME280;27372;42.658;23.256;2023-05-16T12:38:12;93220.53;;;21.87;65.08
41690;BME280;27372;42.658;23.256;2023-05-16T12:40:40;93217.63;;;21.71;64.73
41690;BME280;27372;42.658;23.256;2023-05-16T12:43:21;93218.41;;;21.54;65.49
41690;BME280;27372;42.658;23.256;2023-05-16T12:45:55;93217.00;;;21.66;66.04
41690;BME280;27372;42.658;23.256;2023-05-16T12:48:30;93225.97;;;21.52;66.78
41690;BME280;27372;42.658;23.256;2023-05-16T12:50:56;93243.56;;;21.53;66.73
41690;BME280;27372;42.658;23.256;2023-05-16T12:53:26;93243.75;;;21.22;67.96
41690;BME280;27372;42.658;23.256;2023-05-16T12:55:58;93240.88;;;20.48;70.27
41690;BME280;27372;42.658;23.256;2023-05-16T12:58:24;93244.13;;;20.27;70.71
41690;BME280;27372;42.658;23.256;2023-05-16T13:00:49;93247.97;;;19.18;75.92
41690;BME280;27372;42.658;23.256;2023-05-16T13:03:16;93249.28;;;18.70;78.25
41690;BME280;27372;42.658;23.256;2023-05-16T13:05:41;93257.13;;;18.38;81.88
41690;BME280;27372;42.658;23.256;2023-05-16T13:08:06;93247.59;;;18.09;83.11
41690;BME280;27372;42.658;23.256;2023-05-16T13:10:32;93240.69;;;17.94;84.51
41690;BME280;27372;42.658;23.256;2023-05-16T13:13:00;93237.72;;;17.96;85.23
41690;BME280;27372;42.658;23.256;2023-05-16T13:15:28;93236.13;;;17.95;85.41
41690;BME280;27372;42.658;23.256;2023-05-16T13:17:54;93241.25;;;18.33;84.25
41690;BME280;27372;42.658;23.256;2023-05-16T13:20:19;93248.72;;;18.59;83.85